Time;durP1;ratioP1;P1;durP2;ratioP2;P2;SDS_P1;SDS_P2;PMS_P1;PMS_P2;Temp;Humidity;BMP_temperature;BMP_pressure;BME280_temperature;BME280_humidity;BME280_pressure;Samples;Min_cycle;Max_cycle;Signal;HPM_P1;HPM_P2
2021/09/26 00:01:25;;;;;;;22.38;13.18;;;;;;;17.07;75.75;96450.59;5104269;28;20059;-73
2021/09/26 00:03:52;;;;;;;32.42;15.02;;;;;;;17.09;76.02;96449.09;5104764;28;20110;-73
2021/09/26 00:06:20;;;;;;;27.08;13.55;;;;;;;17.09;76.39;96451.03;5104201;28;20572;-73
2021/09/26 00:08:47;;;;;;;24.02;13.80;;;;;;;17.08;76.23;96457.72;5104759;28;20043;-72
2021/09/26 00:11:14;;;;;;;25.77;13.40;;;;;;;17.04;76.05;96454.88;5104766;28;20051;-72
2021/09/26 00:13:43;;;;;;;25.05;13.73;;;;;;;17.03;75.95;96458.78;5104620;28;20062;-73
2021/09/26 00:16:11;;;;;;;25.13;13.25;;;;;;;17.06;76.02;96468.25;5104243;28;20042;-73
2021/09/26 00:18:38;;;;;;;25.65;13.80;;;;;;;17.12;75.80;96466.81;5104679;28;20054;-73
2021/09/26 00:21:05;;;;;;;26.55;14.60;;;;;;;17.11;75.82;96470.75;5102183;28;20056;-74
2021/09/26 00:23:33;;;;;;;26.48;13.98;;;;;;;17.09;75.96;96468.34;5102777;28;20058;-73
2021/09/26 00:26:01;;;;;;;24.55;13.13;;;;;;;17.11;76.17;96462.47;5102984;28;20043;-73
2021/09/26 00:28:28;;;;;;;21.83;13.40;;;;;;;17.11;76.04;96465.22;5102912;28;20039;-72
2021/09/26 00:30:55;;;;;;;22.90;13.60;;;;;;;17.09;75.78;96468.34;5103256;28;20054;-73
2021/09/26 00:33:21;;;;;;;20.60;13.88;;;;;;;17.10;75.66;96466.41;5103170;28;20074;-73
2021/09/26 00:35:48;;;;;;;20.77;13.45;;;;;;;17.05;75.74;96464.72;5103182;28;20035;-72
2021/09/26 00:38:15;;;;;;;17.70;12.85;;;;;;;17.03;75.59;96464.28;5102844;28;20044;-73
2021/09/26 00:40:43;;;;;;;22.70;13.95;;;;;;;17.00;75.83;96453.97;5102776;28;20490;-72
2021/09/26 00:43:09;;;;;;;21.83;13.50;;;;;;;17.01;75.79;96460.28;5102357;28;20051;-73
2021/09/26 00:45:36;;;;;;;21.50;13.10;;;;;;;16.97;75.84;96464.91;5102861;28;20039;-73
2021/09/26 00:48:03;;;;;;;20.58;13.18;;;;;;;16.94;76.13;96461.72;5102834;28;20043;-73
2021/09/26 00:50:31;;;;;;;20.15;12.90;;;;;;;16.92;76.26;96464.03;5102682;28;20054;-73
2021/09/26 00:52:58;;;;;;;19.48;12.60;;;;;;;16.91;76.62;96456.94;5102952;28;20112;-73
2021/09/26 00:55:24;;;;;;;22.55;12.70;;;;;;;16.90;76.62;96460.81;5102585;28;20181;-72
2021/09/26 00:57:53;;;;;;;21.02;13.05;;;;;;;16.93;76.68;96460.13;5102862;28;20044;-73
2021/09/26 01:00:21;;;;;;;19.35;12.43;;;;;;;16.94;76.74;96464.47;5102274;28;20557;-72
2021/09/26 01:02:47;;;;;;;20.60;12.77;;;;;;;16.92;76.94;96469.53;5102593;28;20055;-72
2021/09/26 01:05:15;;;;;;;17.35;12.02;;;;;;;16.91;76.95;96465.19;5102207;28;20059;-72
2021/09/26 01:07:51;;;;;;;18.55;13.18;;;;;;;16.92;76.92;96469.53;5102539;28;20043;-73
2021/09/26 01:10:23;;;;;;;18.48;13.13;;;;;;;16.93;76.64;96473.88;5102954;28;20044;-73
2021/09/26 01:12:58;;;;;;;26.70;14.93;;;;;;;16.88;76.92;96468.63;5102749;28;20058;-73
2021/09/26 01:15:42;;;;;;;26.10;15.73;;;;;;;16.82;77.28;96461.81;5102149;28;20048;-73
2021/09/26 01:18:18;;;;;;;18.73;13.80;;;;;;;16.78;77.54;96474.66;5102265;28;20745;-73
2021/09/26 01:21:03;;;;;;;22.00;13.45;;;;;;;16.79;77.57;96473.50;4818468;28;8035143;-72
2021/09/26 01:23:50;;;;;;;25.17;14.70;;;;;;;16.76;77.68;96468.75;5103045;28;20694;-73
2021/09/26 01:26:35;;;;;;;14.82;11.23;;;;;;;16.75;77.63;96466.31;5103508;28;20145;-72
2021/09/26 01:29:17;;;;;;;15.63;11.30;;;;;;;16.79;77.28;96469.97;5103213;28;20047;-77
2021/09/26 01:31:50;;;;;;;14.43;10.80;;;;;;;16.82;77.23;96470.06;5103522;28;20055;-73
2021/09/26 01:34:22;;;;;;;15.43;10.95;;;;;;;16.81;77.06;96471.22;5103665;28;20051;-73
2021/09/26 01:36:53;;;;;;;16.50;10.80;;;;;;;16.76;77.38;96465.16;5102638;28;20044;-73
2021/09/26 01:39:22;;;;;;;16.73;12.80;;;;;;;16.74;77.52;96472.97;5102921;28;20048;-73
2021/09/26 01:41:55;;;;;;;16.58;12.90;;;;;;;16.75;77.76;96475.38;5102767;28;20044;-74
2021/09/26 01:44:28;;;;;;;17.50;13.18;;;;;;;16.77;77.68;96478.59;5102531;28;20047;-72
2021/09/26 01:46:56;;;;;;;;;;;;;;;16.79;77.64;96475.47;5103239;28;20044;-73
2021/09/26 01:49:28;;;;;;;18.45;12.70;;;;;;;16.79;77.66;96478.22;5102273;28;19926;-73
2021/09/26 01:51:56;;;;;;;18.42;13.25;;;;;;;16.80;77.64;96475.09;5101140;28;20526;-72
2021/09/26 01:54:23;;;;;;;19.27;12.25;;;;;;;16.79;77.37;96490.00;5102172;28;20051;-72
2021/09/26 01:56:51;;;;;;;16.00;12.50;;;;;;;16.80;77.36;96494.34;5102440;28;20555;-73
2021/09/26 01:59:21;;;;;;;15.02;11.85;;;;;;;16.85;76.88;96496.03;5083822;28;20530;-72
2021/09/26 02:01:49;;;;;;;15.40;12.55;;;;;;;16.81;76.97;96490.47;5102197;28;20047;-73
2021/09/26 02:04:20;;;;;;;20.60;13.40;;;;;;;16.76;77.23;96488.00;5102265;28;20047;-73
2021/09/26 02:06:47;;;;;;;21.02;13.15;;;;;;;16.74;77.28;96490.28;5102606;28;20044;-72
2021/09/26 02:09:14;;;;;;;21.10;13.88;;;;;;;16.73;77.57;96488.69;5102029;28;20058;-73
2021/09/26 02:11:42;;;;;;;17.75;12.65;;;;;;;16.81;77.50;96486.91;5102481;28;20044;-73
2021/09/26 02:14:12;;;;;;;22.13;13.75;;;;;;;16.80;77.50;96494.34;5102504;28;20051;-73
2021/09/26 02:16:39;;;;;;;17.25;12.45;;;;;;;16.81;77.53;96479.47;5101480;28;20520;-72
2021/09/26 02:19:07;;;;;;;17.70;13.15;;;;;;;16.79;77.63;96484.50;5102181;28;20044;-73
2021/09/26 02:21:36;;;;;;;14.82;12.30;;;;;;;16.76;77.74;96471.50;5100956;28;20098;-73
2021/09/26 02:24:04;;;;;;;16.67;12.10;;;;;;;16.72;77.92;96478.84;5102370;28;20048;-73
2021/09/26 02:26:34;;;;;;;19.48;12.15;;;;;;;16.68;78.06;96480.66;5102150;28;20044;-73
2021/09/26 02:29:01;;;;;;;18.33;12.65;;;;;;;16.66;78.08;96478.28;5101649;28;20701;-73
2021/09/26 02:31:27;;;;;;;19.80;13.35;;;;;;;16.65;78.19;96475.88;5101750;28;20534;-73
2021/09/26 02:33:54;;;;;;;14.68;11.05;;;;;;;16.61;78.18;96486.78;5101977;28;20044;-73
2021/09/26 02:36:21;;;;;;;13.70;10.90;;;;;;;16.64;78.18;96490.78;5101920;28;20047;-73
2021/09/26 02:38:49;;;;;;;18.50;12.45;;;;;;;16.66;78.15;96494.78;5101778;28;20043;-73
2021/09/26 02:41:32;;;;;;;15.73;11.70;;;;;;;16.64;78.31;96490.78;5102167;28;20048;-72
2021/09/26 02:44:17;;;;;;;17.63;12.10;;;;;;;16.61;78.50;96486.00;5101597;28;20043;-73
2021/09/26 02:46:47;;;;;;;15.10;11.73;;;;;;;16.59;78.29;96482.78;5101413;28;20097;-72
2021/09/26 02:49:13;;;;;;;17.67;12.98;;;;;;;16.58;78.01;96492.19;5101992;28;20551;-73
2021/09/26 02:51:41;;;;;;;19.35;12.90;;;;;;;16.56;78.07;96487.06;5101706;28;20051;-73
2021/09/26 02:54:10;;;;;;;19.33;12.80;;;;;;;16.58;78.25;96483.94;5101859;28;20051;-73
2021/09/26 02:56:36;;;;;;;18.45;12.45;;;;;;;16.58;78.38;96486.69;5101829;28;20051;-73
2021/09/26 02:59:03;;;;;;;23.92;13.60;;;;;;;16.56;78.34;96472.50;5102103;28;20051;-73
2021/09/26 03:01:30;;;;;;;23.60;13.60;;;;;;;16.54;78.21;96472.84;5101640;28;20457;-74
2021/09/26 03:04:01;;;;;;;23.60;11.95;;;;;;;16.53;78.16;96470.47;5101717;28;20043;-73
2021/09/26 03:06:28;;;;;;;24.55;12.32;;;;;;;16.51;78.20;96472.78;5101673;28;20070;-73
2021/09/26 03:08:55;;;;;;;24.75;12.68;;;;;;;16.50;78.21;96468.44;5101943;28;20043;-73
2021/09/26 03:11:24;;;;;;;21.92;12.73;;;;;;;16.51;78.29;96470.03;5101963;28;20067;-73
2021/09/26 03:13:51;;;;;;;21.52;12.15;;;;;;;16.50;78.43;96474.72;5101860;28;20047;-74
2021/09/26 03:16:17;;;;;;;26.85;12.05;;;;;;;16.50;78.31;96471.97;5101875;28;20048;-73
2021/09/26 03:18:44;;;;;;;25.45;12.55;;;;;;;16.50;78.41;96480.22;5101917;28;20044;-73
2021/09/26 03:21:10;;;;;;;25.90;11.32;;;;;;;16.50;78.36;96473.94;5101445;28;20044;-72
2021/09/26 03:23:37;;;;;;;37.72;12.68;;;;;;;16.48;78.24;96476.22;5102391;28;20043;-73
2021/09/26 03:26:03;;;;;;;69.80;13.38;;;;;;;16.47;78.43;96477.38;5101757;28;20075;-73
2021/09/26 03:28:31;;;;;;;15.43;10.82;;;;;;;16.46;78.19;96473.84;5102024;28;20043;-73
2021/09/26 03:30:58;;;;;;;15.07;10.50;;;;;;;16.42;78.27;96472.94;5102119;28;20055;-72
2021/09/26 03:33:24;;;;;;;20.05;11.40;;;;;;;16.41;78.59;96472.13;5101476;28;20059;-73
2021/09/26 03:35:51;;;;;;;20.77;11.02;;;;;;;16.44;78.80;96482.44;5102103;28;20039;-73
2021/09/26 03:38:17;;;;;;;14.32;9.90;;;;;;;16.41;78.65;96472.13;5101765;28;20056;-72
2021/09/26 03:40:44;;;;;;;23.38;11.57;;;;;;;16.42;78.79;96467.44;5101503;28;20058;-72
2021/09/26 03:43:10;;;;;;;20.25;11.07;;;;;;;16.41;78.88;96461.16;5101651;28;20051;-73
2021/09/26 03:45:38;;;;;;;22.70;11.25;;;;;;;16.43;78.84;96464.31;5101402;28;20052;-72
2021/09/26 03:48:07;;;;;;;21.88;10.15;;;;;;;16.43;78.89;96467.06;5101859;28;20046;-73
2021/09/26 03:50:34;;;;;;;21.83;10.82;;;;;;;16.42;78.60;96457.25;5102137;28;20043;-73
2021/09/26 03:53:00;;;;;;;25.63;11.88;;;;;;;16.41;78.75;96461.16;5099138;28;20601;-73
2021/09/26 03:55:27;;;;;;;17.70;9.98;;;;;;;16.40;78.76;96454.06;5101760;28;20087;-72
2021/09/26 03:57:53;;;;;;;12.00;7.97;;;;;;;16.40;78.59;96458.75;5102221;28;20051;-72
2021/09/26 04:00:22;;;;;;;22.27;10.60;;;;;;;16.37;78.55;96465.75;5101641;28;20039;-72
2021/09/26 04:02:50;;;;;;;21.98;11.07;;;;;;;16.37;78.70;96465.75;5101155;28;20185;-72
2021/09/26 04:05:16;;;;;;;21.23;9.93;;;;;;;16.38;78.62;96456.34;5101719;28;20044;-72
2021/09/26 04:07:43;;;;;;;16.08;9.82;;;;;;;16.36;78.71;96453.16;5101136;28;20039;-74
2021/09/26 04:10:10;;;;;;;19.25;10.02;;;;;;;16.35;78.51;96459.81;5101612;28;20044;-72
2021/09/26 04:12:37;;;;;;;23.05;10.75;;;;;;;16.34;78.66;96455.47;5101107;28;20046;-73
2021/09/26 04:15:05;;;;;;;19.88;10.10;;;;;;;16.32;78.55;96446.75;5104546;28;20036;-73
2021/09/26 04:17:32;;;;;;;19.15;10.90;;;;;;;16.30;78.68;96448.28;5104817;28;20713;-73
2021/09/26 04:20:00;;;;;;;25.30;10.27;;;;;;;16.27;78.67;96443.47;5105555;28;20056;-72
2021/09/26 04:22:26;;;;;;;20.73;11.02;;;;;;;16.23;78.85;96442.56;5104872;27;20055;-73
2021/09/26 04:24:53;;;;;;;19.55;10.45;;;;;;;16.19;78.70;96437.00;5105419;28;20127;-73
2021/09/26 04:27:19;;;;;;;17.20;9.48;;;;;;;16.20;79.00;96430.34;5105443;28;20055;-72
2021/09/26 04:29:46;;;;;;;19.05;10.68;;;;;;;16.19;78.88;96437.00;5104847;28;20043;-73
2021/09/26 04:32:12;;;;;;;18.60;9.93;;;;;;;16.15;78.79;96434.16;5105388;28;20122;-72
2021/09/26 04:34:39;;;;;;;23.63;11.00;;;;;;;16.12;78.94;96437.59;5104509;28;20745;-72
2021/09/26 04:37:07;;;;;;;20.52;10.75;;;;;;;16.11;79.05;96429.72;5105328;28;20074;-72
2021/09/26 04:39:33;;;;;;;21.60;10.50;;;;;;;16.09;78.89;96434.78;5105394;28;20040;-72
2021/09/26 04:42:00;;;;;;;18.75;10.73;;;;;;;16.08;78.96;96424.94;5104867;28;20059;-73
2021/09/26 04:44:26;;;;;;;20.70;10.80;;;;;;;16.04;78.76;96430.34;5104822;28;20058;-73
2021/09/26 04:46:53;;;;;;;25.90;11.10;;;;;;;16.04;78.89;96435.03;5104549;28;20538;-73
2021/09/26 04:49:20;;;;;;;33.88;10.20;;;;;;;16.01;79.04;96433.75;5105019;28;20152;-72
2021/09/26 04:51:46;;;;;;;12.00;8.50;;;;;;;16.03;79.12;96433.44;5104554;28;20109;-72
2021/09/26 04:54:14;;;;;;;9.73;7.82;;;;;;;16.05;79.20;96431.13;5104614;28;20149;-72
2021/09/26 04:56:41;;;;;;;20.00;9.32;;;;;;;16.07;79.37;96435.09;5104549;28;20039;-73
2021/09/26 04:59:07;;;;;;;9.90;8.30;;;;;;;16.11;79.28;96435.22;5105258;28;20048;-73
2021/09/26 05:01:33;;;;;;;9.55;7.10;;;;;;;16.15;79.39;96434.16;5104415;28;20047;-73
2021/09/26 05:04:00;;;;;;;9.75;7.40;;;;;;;16.19;79.41;96439.75;5104090;28;20058;-73
2021/09/26 05:06:26;;;;;;;9.82;6.97;;;;;;;16.24;79.53;96438.72;5104749;28;20048;-72
2021/09/26 05:08:53;;;;;;;10.15;6.55;;;;;;;16.27;79.67;96444.28;5103828;28;20055;-72
2021/09/26 05:11:21;;;;;;;10.88;7.20;;;;;;;16.28;79.48;96445.88;5104514;28;20039;-72
2021/09/26 05:13:47;;;;;;;7.65;6.25;;;;;;;16.30;79.15;96443.59;5104693;28;20043;-75
2021/09/26 05:16:14;;;;;;;7.80;6.35;;;;;;;16.31;79.15;96444.38;5103932;28;20055;-73
2021/09/26 05:18:40;;;;;;;15.93;9.52;;;;;;;16.33;79.13;96437.38;5104538;28;20043;-72
2021/09/26 05:21:06;;;;;;;14.00;9.25;;;;;;;16.33;78.52;96440.09;5102629;28;20052;-72
2021/09/26 05:23:34;;;;;;;17.23;9.60;;;;;;;16.32;78.18;96441.28;5103893;28;20597;-72
2021/09/26 05:26:01;;;;;;;13.32;9.13;;;;;;;16.31;78.33;96439.69;5102055;28;20122;-73
2021/09/26 05:28:28;;;;;;;14.45;8.93;;;;;;;16.32;78.47;96433.03;5103684;28;20050;-72
2021/09/26 05:30:55;;;;;;;15.15;8.88;;;;;;;16.35;78.62;96437.03;5103708;28;20047;-72
2021/09/26 05:33:21;;;;;;;15.07;9.13;;;;;;;16.37;78.46;96434.72;5104118;28;20048;-74
2021/09/26 05:35:48;;;;;;;17.20;9.27;;;;;;;16.38;78.54;96433.56;5103639;28;20047;-72
2021/09/26 05:38:15;;;;;;;16.40;9.27;;;;;;;16.39;78.24;96435.16;5104158;28;20039;-72
2021/09/26 05:40:41;;;;;;;10.13;6.35;;;;;;;16.40;78.09;96426.56;5104143;28;20039;-72
2021/09/26 05:43:08;;;;;;;16.95;9.30;;;;;;;16.44;78.05;96426.63;5103144;28;20048;-72
2021/09/26 05:45:36;;;;;;;16.35;9.27;;;;;;;16.49;78.21;96428.34;5103521;28;20039;-73
2021/09/26 05:48:02;;;;;;;15.85;9.60;;;;;;;16.53;78.41;96426.47;5103361;28;20040;-73
2021/09/26 05:50:30;;;;;;;15.13;9.18;;;;;;;16.53;77.89;96429.22;5103114;28;20054;-73
2021/09/26 05:52:56;;;;;;;17.35;8.93;;;;;;;16.56;77.80;96440.31;5103608;28;20044;-72
2021/09/26 05:55:23;;;;;;;20.23;11.10;;;;;;;16.59;77.67;96438.81;5103087;28;20039;-72
2021/09/26 05:57:49;;;;;;;23.90;11.15;;;;;;;16.58;77.21;96437.22;5103452;28;20047;-73
2021/09/26 06:00:17;;;;;;;18.77;9.57;;;;;;;16.63;77.27;96445.19;5103406;28;20051;-73
2021/09/26 06:02:46;;;;;;;20.00;10.20;;;;;;;16.68;77.29;96440.22;5102860;28;20733;-72
2021/09/26 06:05:13;;;;;;;19.58;8.93;;;;;;;16.79;77.15;96437.75;5103303;28;20043;-72
2021/09/26 06:07:39;;;;;;;9.73;7.05;;;;;;;16.84;76.93;96434.75;5103505;28;20047;-72
2021/09/26 06:10:07;;;;;;;10.18;5.75;;;;;;;16.89;76.16;96436.44;5103343;28;20052;-72
2021/09/26 06:12:34;;;;;;;10.93;5.57;;;;;;;16.94;75.95;96439.69;5103142;28;20048;-73
2021/09/26 06:15:03;;;;;;;7.63;5.22;;;;;;;16.95;76.49;96435.78;5103242;28;20040;-73
2021/09/26 06:17:29;;;;;;;6.40;4.78;;;;;;;16.97;75.68;96442.91;5103525;28;20047;-73
2021/09/26 06:19:57;;;;;;;8.73;4.90;;;;;;;17.00;76.05;96450.44;5102483;28;20541;-73
2021/09/26 06:22:25;;;;;;;8.70;5.45;;;;;;;17.09;75.61;96451.03;5101309;28;20411;-72
2021/09/26 06:24:52;;;;;;;7.47;5.15;;;;;;;17.17;75.82;96441.78;5102752;28;20047;-72
2021/09/26 06:27:19;;;;;;;6.95;4.90;;;;;;;17.27;75.33;96441.22;5102672;28;20686;-72
2021/09/26 06:29:46;;;;;;;7.63;5.15;;;;;;;17.34;75.46;96438.66;5102194;28;20036;-74
2021/09/26 06:32:13;;;;;;;7.05;4.93;;;;;;;17.42;75.76;96443.16;5102672;28;20051;-73
2021/09/26 06:34:39;;;;;;;7.82;5.45;;;;;;;17.51;75.75;96445.69;5102753;28;20047;-73
2021/09/26 06:37:08;;;;;;;6.95;5.13;;;;;;;17.63;75.32;96447.50;5102105;28;20040;-73
2021/09/26 06:39:35;;;;;;;5.85;4.50;;;;;;;17.79;74.81;96442.75;5102632;28;20570;-73
2021/09/26 06:42:03;;;;;;;8.13;4.80;;;;;;;17.85;74.77;96446.81;5102917;28;20046;-73
2021/09/26 06:44:29;;;;;;;7.97;4.75;;;;;;;17.92;74.64;96444.22;5102073;28;20047;-73
2021/09/26 06:46:56;;;;;;;8.57;4.65;;;;;;;17.94;73.87;96441.91;5102286;28;20050;-73
2021/09/26 06:49:22;;;;;;;8.15;4.78;;;;;;;18.01;73.57;96435.75;5102286;28;20047;-72
2021/09/26 06:51:49;;;;;;;7.80;4.45;;;;;;;18.07;72.95;96450.81;5102049;28;20546;-75
2021/09/26 06:54:16;;;;;;;8.35;4.15;;;;;;;18.15;73.29;96452.53;5101983;28;20039;-77
2021/09/26 06:56:43;;;;;;;9.45;4.40;;;;;;;18.25;73.44;96445.63;5102450;28;20044;-75
2021/09/26 06:59:09;;;;;;;10.52;4.22;;;;;;;18.64;72.55;96462.09;5101921;28;20058;-75
2021/09/26 07:01:36;;;;;;;8.20;4.13;;;;;;;19.11;71.57;96452.66;5101844;28;20051;-75
2021/09/26 07:04:04;;;;;;;5.68;3.83;;;;;;;19.44;69.44;96455.50;5101314;28;20694;-75
2021/09/26 07:06:31;;;;;;;5.55;3.97;;;;;;;19.48;69.11;96455.56;5101645;28;20100;-76
2021/09/26 07:08:57;;;;;;;7.95;3.97;;;;;;;19.49;69.68;96451.63;5101563;28;20047;-76
2021/09/26 07:11:25;;;;;;;4.32;3.40;;;;;;;19.61;69.30;96448.66;5101382;28;20082;-75
2021/09/26 07:13:51;;;;;;;8.10;3.80;;;;;;;20.07;67.96;96446.47;5101635;28;20131;-75
2021/09/26 07:16:18;;;;;;;5.88;3.40;;;;;;;20.64;65.09;96448.28;5101481;28;20414;-75
2021/09/26 07:18:44;;;;;;;5.90;3.20;;;;;;;21.08;61.73;96449.03;5101562;28;20055;-75
2021/09/26 07:21:13;;;;;;;4.38;3.20;;;;;;;21.56;60.65;96453.72;5099820;28;20787;-75
2021/09/26 07:23:39;;;;;;;4.25;3.25;;;;;;;21.94;59.06;96452.34;5101876;28;20064;-75
2021/09/26 07:26:06;;;;;;;5.00;3.45;;;;;;;22.44;58.60;96458.09;5101654;28;20081;-76
2021/09/26 07:28:34;;;;;;;5.28;3.33;;;;;;;22.58;55.75;96457.34;5101474;28;20047;-75
2021/09/26 07:31:01;;;;;;;5.55;4.32;;;;;;;22.77;55.14;96450.63;5101430;28;20527;-76
2021/09/26 07:33:27;;;;;;;6.55;3.90;;;;;;;23.13;53.64;96452.25;5100910;28;20052;-75
2021/09/26 07:35:54;;;;;;;6.47;3.80;;;;;;;23.60;54.66;96447.41;5101340;28;20410;-75
2021/09/26 07:38:20;;;;;;;6.93;3.10;;;;;;;23.78;51.12;96444.63;5101286;28;20072;-76
2021/09/26 07:40:48;;;;;;;7.38;3.28;;;;;;;23.95;50.96;96445.75;5100661;28;20043;-76
2021/09/26 07:43:14;;;;;;;5.00;3.53;;;;;;;23.89;49.87;96439.00;5101136;28;20047;-76
2021/09/26 07:45:42;;;;;;;9.82;4.57;;;;;;;24.24;51.63;96438.06;5101359;28;20039;-75
2021/09/26 07:48:08;;;;;;;5.25;3.70;;;;;;;24.68;50.37;96433.84;5101342;28;20060;-75
2021/09/26 07:50:35;;;;;;;5.10;3.65;;;;;;;25.12;48.26;96426.78;5105520;28;20055;-75
2021/09/26 07:53:02;;;;;;;5.97;3.28;;;;;;;25.43;47.90;96422.13;5105074;28;20039;-75
2021/09/26 07:55:28;;;;;;;5.60;3.35;;;;;;;25.65;46.22;96429.03;5105763;28;20051;-76
2021/09/26 07:57:55;;;;;;;4.90;3.75;;;;;;;25.84;46.45;96419.31;5104953;28;20036;-76
2021/09/26 08:00:21;;;;;;;5.85;2.72;;;;;;;26.01;46.09;96423.09;5113906;28;20051;-75
2021/09/26 08:02:49;;;;;;;6.40;2.80;;;;;;;26.18;45.17;96416.47;5111842;28;20051;-75
2021/09/26 08:05:15;;;;;;;3.97;2.83;;;;;;;26.39;45.03;96420.19;5112109;28;20413;-75
2021/09/26 08:07:42;;;;;;;3.42;2.50;;;;;;;26.53;44.54;96422.81;5113373;28;20409;-77
2021/09/26 08:10:10;;;;;;;6.20;2.78;;;;;;;26.40;44.51;96424.56;5113125;28;20047;-75
2021/09/26 08:12:37;;;;;;;4.43;2.92;;;;;;;25.96;45.71;96427.13;5114275;28;20055;-76
2021/09/26 08:15:04;;;;;;;6.78;3.00;;;;;;;25.47;46.51;96425.63;5112501;28;20051;-76
2021/09/26 08:17:32;;;;;;;6.38;2.60;;;;;;;25.09;48.14;96431.19;5114714;28;20047;-75
2021/09/26 08:20:00;;;;;;;7.68;3.08;;;;;;;24.83;49.98;96423.41;5113228;28;20498;-75
2021/09/26 08:22:27;;;;;;;6.65;2.80;;;;;;;24.76;49.63;96415.13;5113730;28;20040;-76
2021/09/26 08:24:54;;;;;;;6.57;2.83;;;;;;;24.57;49.32;96422.78;5113257;28;20108;-75
2021/09/26 08:27:20;;;;;;;4.22;2.67;;;;;;;24.26;49.48;96420.97;5113476;28;20044;-76
2021/09/26 08:29:47;;;;;;;4.00;2.70;;;;;;;24.04;51.32;96418.28;5113290;28;20051;-76
2021/09/26 08:32:13;;;;;;;5.88;2.70;;;;;;;23.84;51.74;96408.84;5112752;28;20048;-75
2021/09/26 08:34:40;;;;;;;7.85;3.20;;;;;;;23.64;51.90;96423.19;5113663;28;20047;-75
2021/09/26 08:37:08;;;;;;;6.47;3.58;;;;;;;23.53;52.82;96427.19;5112495;28;20039;-75
2021/09/26 08:39:34;;;;;;;5.70;3.13;;;;;;;23.40;53.71;96412.94;5113960;28;20044;-75
2021/09/26 08:42:01;;;;;;;7.80;3.67;;;;;;;23.28;53.46;96416.91;5112615;28;20052;-75
2021/09/26 08:44:29;;;;;;;9.07;4.75;;;;;;;23.14;53.75;96414.16;5113661;28;20050;-75
2021/09/26 08:46:57;;;;;;;6.80;3.35;;;;;;;23.58;53.94;96416.44;5112761;28;20506;-75
2021/09/26 08:49:24;;;;;;;11.88;3.80;;;;;;;24.33;52.44;96418.16;5113472;28;20053;-76
2021/09/26 08:51:54;;;;;;;6.07;3.35;;;;;;;24.55;51.16;96416.06;5112696;28;20051;-75
2021/09/26 08:54:22;;;;;;;6.40;3.25;;;;;;;24.55;51.08;96422.41;5112778;28;20062;-75
2021/09/26 08:56:49;;;;;;;8.10;3.38;;;;;;;24.37;53.29;96430.06;5113036;28;20044;-76
2021/09/26 08:59:16;;;;;;;6.13;3.28;;;;;;;24.20;49.98;96423.38;5112275;28;20040;-75
2021/09/26 09:01:43;;;;;;;5.47;3.00;;;;;;;23.96;50.73;96422.28;5113254;28;20068;-75
2021/09/26 09:04:09;;;;;;;13.02;4.10;;;;;;;23.78;51.31;96421.56;5112086;28;20043;-75
2021/09/26 09:06:40;;;;;;;7.68;3.42;;;;;;;23.77;53.07;96425.56;5113886;28;20043;-75
2021/09/26 09:09:09;;;;;;;7.40;3.30;;;;;;;23.78;53.41;96427.13;5112092;28;20055;-74
2021/09/26 09:11:36;;;;;;;8.25;3.80;;;;;;;23.87;54.52;96435.84;5113455;28;20048;-75
2021/09/26 09:14:03;;;;;;;9.48;3.78;;;;;;;23.88;52.29;96435.44;5111820;28;20051;-75
2021/09/26 09:16:31;;;;;;;8.20;4.07;;;;;;;23.83;51.19;96435.84;5113243;28;20039;-76
2021/09/26 09:18:58;;;;;;;7.15;4.05;;;;;;;23.85;52.63;96427.88;5112905;28;20044;-75
2021/09/26 09:21:27;;;;;;;7.72;4.03;;;;;;;23.82;51.66;96436.25;5111991;28;20040;-75
2021/09/26 09:24:12;;;;;;;5.50;2.70;;;;;;;23.78;53.01;96438.25;5113009;28;20510;-75
2021/09/26 09:26:41;;;;;;;10.57;4.38;;;;;;;23.84;57.07;96439.44;5111901;28;20043;-76
2021/09/26 09:29:08;;;;;;;7.10;3.58;;;;;;;23.89;56.98;96444.56;5112653;28;20514;-76
2021/09/26 09:31:46;;;;;;;10.98;4.07;;;;;;;23.91;54.72;96437.44;5111638;28;20505;-75
2021/09/26 09:34:28;;;;;;;14.82;4.03;;;;;;;23.87;54.19;96430.28;5112448;28;20609;-75
2021/09/26 09:37:08;;;;;;;6.38;3.42;;;;;;;23.86;54.25;96439.84;5112579;28;20039;-75
2021/09/26 09:39:35;;;;;;;10.57;4.10;;;;;;;23.69;55.48;96433.91;5112008;28;20055;-75
2021/09/26 09:42:17;;;;;;;5.38;2.85;;;;;;;23.62;53.31;96436.69;5112226;28;20043;-72
2021/09/26 09:44:44;;;;;;;8.23;3.92;;;;;;;23.62;55.12;96435.91;5111710;28;20044;-74
2021/09/26 09:47:11;;;;;;;6.85;3.47;;;;;;;23.62;55.47;96438.66;5094449;28;20051;-74
2021/09/26 09:49:38;;;;;;;9.18;4.38;;;;;;;23.60;54.54;96439.09;5111843;28;20044;-75
2021/09/26 09:52:05;;;;;;;7.55;3.72;;;;;;;23.56;53.61;96429.97;5111869;28;20071;-74
2021/09/26 09:54:33;;;;;;;7.90;3.80;;;;;;;23.62;54.92;96431.13;5111957;28;20036;-75
2021/09/26 09:57:11;;;;;;;11.77;4.25;;;;;;;23.73;55.01;96424.78;5112011;28;20048;-76
2021/09/26 09:59:38;;;;;;;7.72;3.42;;;;;;;23.88;55.76;96438.22;5112233;28;20040;-76
2021/09/26 10:02:05;;;;;;;6.10;3.33;;;;;;;23.99;55.45;96432.63;5110747;28;20052;-75
2021/09/26 10:04:37;;;;;;;7.25;3.80;;;;;;;24.11;52.05;96434.94;5112311;28;20505;-74
2021/09/26 10:07:17;;;;;;;7.75;3.20;;;;;;;24.26;53.24;96424.53;5110907;28;20410;-74
2021/09/26 10:09:44;;;;;;;8.60;4.35;;;;;;;24.38;54.87;96438.03;5112234;28;20095;-74
2021/09/26 10:12:20;;;;;;;7.28;3.35;;;;;;;24.41;53.47;96425.28;5110214;28;20506;-75
2021/09/26 10:14:47;;;;;;;10.70;4.10;;;;;;;24.46;53.03;96422.06;5111596;28;20047;-74
2021/09/26 10:17:14;;;;;;;5.93;3.28;;;;;;;24.51;54.60;96421.63;5111289;28;20051;-74
2021/09/26 10:19:40;;;;;;;5.55;2.75;;;;;;;24.56;53.23;96431.56;5111302;28;20509;-74
2021/09/26 10:22:07;;;;;;;5.80;2.72;;;;;;;24.55;54.45;96425.19;5111032;28;20044;-75
2021/09/26 10:24:36;;;;;;;8.80;3.10;;;;;;;24.54;53.34;96429.19;5110918;28;20471;-74
2021/09/26 10:27:05;;;;;;;5.10;3.03;;;;;;;24.56;54.88;96420.41;5111708;28;20047;-73
2021/09/26 10:29:34;;;;;;;8.25;3.42;;;;;;;24.44;53.91;96421.69;5110942;28;20047;-76
2021/09/26 10:32:04;;;;;;;8.88;3.20;;;;;;;24.20;55.58;96426.94;5111694;28;20058;-76
2021/09/26 10:34:31;;;;;;;4.88;3.03;;;;;;;24.09;56.35;96425.44;5110558;28;20056;-76
2021/09/26 10:36:59;;;;;;;5.85;3.30;;;;;;;24.02;56.05;96419.91;5111237;28;20601;-76
2021/09/26 10:39:27;;;;;;;9.90;5.47;;;;;;;23.95;56.20;96437.41;5110753;28;20043;-77
2021/09/26 10:42:05;;;;;;;9.07;5.00;;;;;;;23.89;54.69;96437.03;5110825;28;20414;-76
2021/09/26 10:44:33;;;;;;;6.82;3.50;;;;;;;23.86;54.47;96434.28;5111071;28;20043;-74
2021/09/26 10:47:09;;;;;;;6.43;3.28;;;;;;;23.88;56.07;96429.09;5110425;28;20122;-77
2021/09/26 10:49:40;;;;;;;7.00;3.35;;;;;;;23.84;56.59;96431.88;5111407;28;20405;-76
2021/09/26 10:52:22;;;;;;;5.90;3.55;;;;;;;23.89;57.21;96439.00;5109975;28;20043;-76
2021/09/26 10:54:49;;;;;;;11.20;4.13;;;;;;;23.85;55.12;96429.88;5110984;28;20047;-76
2021/09/26 10:57:25;;;;;;;10.45;4.35;;;;;;;23.84;54.79;96439.44;5110485;28;20066;-77
2021/09/26 10:59:55;;;;;;;5.78;3.83;;;;;;;23.82;54.60;96439.84;5110662;28;20051;-76
2021/09/26 11:02:41;;;;;;;5.90;3.22;;;;;;;23.86;55.64;96434.28;5110702;28;20138;-76
2021/09/26 11:05:35;;;;;;;7.03;3.63;;;;;;;23.90;57.57;96432.25;5091636;28;20043;-76
2021/09/26 11:08:02;;;;;;;5.65;3.67;;;;;;;23.95;58.74;96415.16;5110975;28;20091;-77
2021/09/26 11:10:38;;;;;;;7.30;3.65;;;;;;;23.98;56.35;96419.91;5110504;28;20035;-76
2021/09/26 11:13:09;;;;;;;6.53;3.80;;;;;;;24.07;56.08;96406.38;5110082;28;20043;-78
2021/09/26 11:15:58;;;;;;;5.60;3.90;;;;;;;24.15;53.74;96402.34;5111312;28;20055;-76
2021/09/26 11:18:58;;;;;;;7.90;3.80;;;;;;;24.16;55.17;96397.56;5109647;28;20398;-77
2021/09/26 11:21:51;;;;;;;7.60;3.22;;;;;;;24.15;52.02;96396.78;5107139;28;20105;-76
2021/09/26 11:24:58;;;;;;;6.43;3.42;;;;;;;24.22;54.46;96401.50;5114115;28;20047;-76
2021/09/26 11:27:34;;;;;;;9.75;3.40;;;;;;;24.28;54.14;96387.97;5113732;28;20088;-76
2021/09/26 11:30:27;;;;;;;8.50;3.25;;;;;;;24.32;52.75;96397.06;5115284;28;20048;-76
2021/09/26 11:33:05;;;;;;;7.15;3.70;;;;;;;24.42;52.68;96387.91;5114401;28;20492;-76
2021/09/26 11:35:35;;;;;;;9.40;2.78;;;;;;;24.54;52.54;96387.44;5114301;28;20039;-76